Aeroporto :
LOGIN :

Iscrizione | Disclaimer

   EN    FR    IT 

 










Sommario :    VFR   VFR Marginale   IFR   IFR Intensivo   IFR Molto Intensivo
Visibilità : 
Base nubi : 
>= 8 km
>= 3000ft
5 / 8 km
1000 / 3000 ft
1500m / 5 km
500 / 1000 ft
800 / 1500m
200 / 500 ft
< 800m
< 200 ft
Simboli :   Temporali  Nebbia  Neve Forte  Precipitazioni Forti  Vento > 20 kt
SIGMETs :   Varie  Temporali  Ghiacco  Turbolenza  Onda orograficha  Ceneri Vulcaniche






- Altitudine del aeroporto : 268 ft
- Codice IATA : BFS


EGAA - Belfast Aldergrove

ULTIMO METAR :
  • 180350Z 22014KT 9999 FEW030 SCT038 03/02 Q1008

METARs OBSOLETI :
  • 180320Z 22014KT 9999 FEW014 SCT046 03/02 Q1008
  • 180250Z 22012KT 9999 SCT041 03/02 Q1008
  • 180220Z 22012KT 9999 FEW043 03/02 Q1008
  • 180150Z 22013KT 9999 FEW019 03/01 Q1008
  • 180120Z 23015KT 9999 -RA SCT014 BKN019 03/02 Q1009

TAF TAF EGAA
Valido dal 18 a 00 ore il 19 a 00 ore UTC


172302Z 1800/1824 23013KT 9999 FEW015 SCT030
TEMPO 1800/1824 24016G26KT 7000 SHRA
PROB30
TEMPO 1800/1810 4000 SHRASN SCT009 BKN014
PROB30
TEMPO 1817/1824 2000 SHRASN BKN007



MetMap, La meteo Aeronautica in un colpo d'occhio ! - Copyright ORBIFLY Dicembre 2007 - Disclaimer

ORBIFLY MET'MAP TEAM :

Programmazione e sviluppo : Alexandra Zaïnal
Concezione : Baudouin d'Aumeries
Aiuto per la programmazione : Marc-Olivier Méhu
Supporto tecnico e logistico : Manuel Goepfert
Aiuto per la traduzione : Arnaldo La Scala

Contatto : metmap@orbifly.com




FONTI E CREDITI :

   NOAA